Time;durP1;ratioP1;P1;durP2;ratioP2;P2;SDS_P1;SDS_P2;PMS_P1;PMS_P2;Temp;Humidity;BMP_temperature;BMP_pressure;BME280_temperature;BME280_humidity;BME280_pressure;Samples;Min_cycle;Max_cycle;Signal;HPM_P1;HPM_P2
2022/05/06 00:01:14;;;;;;;7.87;6.87;;;11.90;99.90;;;;;;5074779;28;20209;-82
2022/05/06 00:03:42;;;;;;;6.53;5.80;;;12.10;99.90;;;;;;5062110;28;20198;-82
2022/05/06 00:06:11;;;;;;;6.60;5.88;;;12.00;99.90;;;;;;5071947;28;20222;-82
2022/05/06 00:08:38;;;;;;;6.87;6.27;;;11.90;99.90;;;;;;5073476;28;20198;-82
2022/05/06 00:11:05;;;;;;;9.65;6.70;;;11.70;99.90;;;;;;5073049;28;20218;-82
2022/05/06 00:13:33;;;;;;;8.90;7.30;;;11.70;99.90;;;;;;5061566;28;20198;-82
2022/05/06 00:16:00;;;;;;;8.65;6.95;;;11.80;99.90;;;;;;5070936;28;20213;-82
2022/05/06 00:18:28;;;;;;;11.60;8.30;;;11.60;99.90;;;;;;5074694;28;20201;-82
2022/05/06 00:20:55;;;;;;;10.27;7.83;;;11.60;99.90;;;;;;5074580;28;20205;-82
2022/05/06 00:23:24;;;;;;;9.43;7.63;;;11.60;99.90;;;;;;5081977;28;20204;-82
2022/05/06 00:25:52;;;;;;;11.27;6.77;;;11.30;99.90;;;;;;5069526;28;20224;-82
2022/05/06 00:28:21;;;;;;;9.33;7.47;;;11.20;99.90;;;;;;5073432;28;20201;-82
2022/05/06 00:30:49;;;;;;;9.30;8.27;;;11.10;99.90;;;;;;5074198;28;20594;-82
2022/05/06 00:33:16;;;;;;;10.17;7.43;;;11.10;99.90;;;;;;5064095;28;20205;-82
2022/05/06 00:35:44;;;;;;;8.70;7.10;;;11.20;99.90;;;;;;5068892;28;20225;-82
2022/05/06 00:38:11;;;;;;;10.33;7.37;;;11.40;99.90;;;;;;5068927;28;20206;-82
2022/05/06 00:40:41;;;;;;;9.63;7.07;;;11.50;99.90;;;;;;5073693;28;20186;-82
2022/05/06 00:43:08;;;;;;;12.70;7.93;;;11.60;99.90;;;;;;5073587;28;20216;-82
2022/05/06 00:45:45;;;;;;;11.70;8.23;;;11.60;99.90;;;;;;5073958;28;20237;-82
2022/05/06 00:48:15;;;;;;;11.25;8.93;;;11.40;99.90;;;;;;5073119;28;20201;-82
2022/05/06 00:50:43;;;;;;;10.57;8.37;;;11.40;99.90;;;;;;5073514;28;20218;-82
2022/05/06 00:53:27;;;;;;;9.43;8.40;;;11.20;99.90;;;;;;5072276;28;20205;-82
2022/05/06 00:55:56;;;;;;;8.83;7.83;;;11.10;99.90;;;;;;5072995;28;20225;-82
2022/05/06 00:58:24;;;;;;;12.13;8.33;;;10.90;99.90;;;;;;5071390;28;20209;-82
2022/05/06 01:00:52;;;;;;;8.47;7.57;;;10.80;99.90;;;;;;5073385;28;20539;-82
2022/05/06 01:03:19;;;;;;;12.20;9.10;;;10.80;99.90;;;;;;5070615;28;20722;-82
2022/05/06 01:05:48;;;;;;;9.57;7.57;;;10.70;99.90;;;;;;5066910;28;20213;-82
2022/05/06 01:08:16;;;;;;;9.53;7.90;;;10.60;99.90;;;;;;5070886;28;20576;-82
2022/05/06 01:10:44;;;;;;;10.77;8.23;;;10.70;99.90;;;;;;5068206;28;20217;-82
2022/05/06 01:13:13;;;;;;;8.50;7.47;;;10.80;99.90;;;;;;5056753;28;20202;-82
2022/05/06 01:15:41;;;;;;;9.50;8.00;;;10.70;99.90;;;;;;5073793;28;20217;-82
2022/05/06 01:18:18;;;;;;;9.33;7.97;;;10.60;99.90;;;;;;5072543;28;20205;-82
2022/05/06 01:20:49;;;;;;;9.70;7.73;;;10.80;99.90;;;;;;5073067;28;20185;-82
2022/05/06 01:23:20;;;;;;;9.73;7.77;;;10.90;99.90;;;;;;5072858;28;20204;-82
2022/05/06 01:25:48;;;;;;;9.70;7.90;;;11.00;99.90;;;;;;5070012;28;20584;-82
2022/05/06 01:28:15;;;;;;;8.33;7.10;;;10.80;99.90;;;;;;5072593;28;20679;-82
2022/05/06 01:30:45;;;;;;;9.93;7.17;;;10.80;99.90;;;;;;5073600;28;20193;-82
2022/05/06 01:33:14;;;;;;;8.43;7.30;;;10.90;99.90;;;;;;5055792;28;20198;-82
2022/05/06 01:35:45;;;;;;;9.30;7.43;;;11.00;99.90;;;;;;5072911;28;20216;-82
2022/05/06 01:38:20;;;;;;;9.43;7.40;;;11.00;99.90;;;;;;5064394;28;20198;-82
2022/05/06 01:40:58;;;;;;;8.17;7.27;;;11.10;99.90;;;;;;5054036;28;20335;-82
2022/05/06 01:43:38;;;;;;;10.87;7.70;;;11.10;99.90;;;;;;5065676;28;20563;-82
2022/05/06 01:46:07;;;;;;;7.67;6.90;;;11.00;99.90;;;;;;5057109;28;20218;-82
2022/05/06 01:48:36;;;;;;;10.83;8.77;;;11.00;99.90;;;;;;5071274;28;20197;-82
2022/05/06 01:51:08;;;;;;;9.57;8.20;;;11.00;99.90;;;;;;5072060;28;20218;-82
2022/05/06 01:53:36;;;;;;;11.30;8.70;;;11.00;99.90;;;;;;5066439;28;20208;-82
2022/05/06 01:56:07;;;;;;;9.93;8.33;;;11.00;99.90;;;;;;5072288;28;20224;-82
2022/05/06 01:58:42;;;;;;;9.20;8.13;;;11.00;99.90;;;;;;5066842;28;20190;-82
2022/05/06 02:01:11;;;;;;;9.63;8.60;;;11.00;99.90;;;;;;5059373;28;20205;-82
2022/05/06 02:06:28;;;;;;;9.13;8.20;;;11.00;99.90;;;;;;5055829;28;20214;-82
2022/05/06 02:09:05;;;;;;;9.20;8.20;;;10.90;99.90;;;;;;5071593;28;20210;-82
2022/05/06 02:11:43;;;;;;;10.63;8.70;;;10.80;99.90;;;;;;5070979;28;20205;-82
2022/05/06 02:14:10;;;;;;;9.07;8.17;;;10.80;99.90;;;;;;5070567;28;20193;-82
2022/05/06 02:17:05;;;;;;;9.90;8.80;;;10.70;99.90;;;;;;5069324;28;20217;-81
2022/05/06 02:20:13;;;;;;;9.50;8.03;;;10.60;99.90;;;;;;5060612;28;20213;-82
2022/05/06 02:22:59;;;;;;;8.53;7.47;;;10.70;99.90;;;;;;5068150;28;20193;-82
2022/05/06 02:25:36;;;;;;;9.87;8.67;;;10.70;99.90;;;;;;5065359;28;20652;-82
2022/05/06 02:28:28;;;;;;;10.03;8.33;;;10.70;99.90;;;;;;5061814;28;20205;-82
2022/05/06 02:33:50;;;;;;;10.73;8.53;;;10.70;99.90;;;;;;5065541;28;20604;-82
2022/05/06 02:36:24;;;;;;;10.53;9.27;;;10.60;99.90;;;;;;5063460;28;20217;-82
2022/05/06 02:38:52;;;;;;;10.40;8.63;;;10.30;99.90;;;;;;5064847;28;20209;-82
2022/05/06 02:41:19;;;;;;;10.80;8.57;;;10.20;99.90;;;;;;5070661;28;20648;-82
2022/05/06 02:43:58;;;;;;;9.27;8.23;;;10.20;99.90;;;;;;5057864;28;20193;-83
2022/05/06 02:46:31;;;;;;;10.33;7.70;;;10.20;99.90;;;;;;5065115;28;20232;-82
2022/05/06 02:48:58;;;;;;;11.70;8.50;;;10.10;99.90;;;;;;5071815;28;20205;-82
2022/05/06 02:51:28;;;;;;;12.53;9.43;;;10.10;99.90;;;;;;5072118;28;20221;-82
2022/05/06 02:53:56;;;;;;;12.53;9.53;;;10.00;99.90;;;;;;5071975;28;20201;-82
2022/05/06 02:56:32;;;;;;;9.90;8.10;;;9.80;99.90;;;;;;5068063;28;20217;-82
2022/05/06 02:59:04;;;;;;;9.93;8.07;;;9.90;99.90;;;;;;5069947;28;20570;-82
2022/05/06 03:01:34;;;;;;;10.03;8.43;;;9.80;99.90;;;;;;5065401;28;20193;-82
2022/05/06 03:04:11;;;;;;;9.53;7.77;;;9.70;99.90;;;;;;5072312;28;20209;-82
2022/05/06 03:06:42;;;;;;;12.53;8.30;;;9.70;99.90;;;;;;5072696;28;20683;-82
2022/05/06 03:09:11;;;;;;;9.93;7.97;;;9.70;99.90;;;;;;5071491;28;20212;-82
2022/05/06 03:11:38;;;;;;;10.80;8.77;;;9.70;99.90;;;;;;5060835;28;20225;-82
2022/05/06 03:14:14;;;;;;;9.77;8.27;;;9.60;99.90;;;;;;5062366;28;20208;-82
2022/05/06 03:16:53;;;;;;;11.53;8.47;;;9.60;99.90;;;;;;5067552;28;20213;-82
2022/05/06 03:19:21;;;;;;;9.13;8.23;;;9.70;99.90;;;;;;5071156;28;20201;-82
2022/05/06 03:21:53;;;;;;;8.30;7.50;;;9.70;99.90;;;;;;5071005;28;20197;-82
2022/05/06 03:24:21;;;;;;;14.17;8.77;;;9.40;99.90;;;;;;5062823;28;20213;-82
2022/05/06 03:26:48;;;;;;;9.87;8.03;;;9.70;99.90;;;;;;5068298;28;20234;-82
2022/05/06 03:29:18;;;;;;;8.63;7.40;;;9.80;99.90;;;;;;5084498;28;20194;-82
2022/05/06 03:31:46;;;;;;;10.17;8.53;;;9.80;99.90;;;;;;5065373;28;20218;-82
2022/05/06 03:34:16;;;;;;;9.37;7.90;;;10.10;99.90;;;;;;5073209;28;20200;-82
2022/05/06 03:36:45;;;;;;;9.03;8.13;;;10.20;99.90;;;;;;5071719;28;20213;-82
2022/05/06 03:39:14;;;;;;;15.67;9.10;;;10.40;99.90;;;;;;5055282;28;20202;-82
2022/05/06 03:41:51;;;;;;;10.40;8.87;;;10.20;99.90;;;;;;5075374;28;20208;-82
2022/05/06 03:44:21;;;;;;;8.80;7.53;;;9.80;99.90;;;;;;5069079;28;20214;-82
2022/05/06 03:46:52;;;;;;;8.70;7.47;;;9.80;99.90;;;;;;5070406;28;20213;-82
2022/05/06 03:49:27;;;;;;;12.03;8.17;;;9.70;99.90;;;;;;5067785;28;20201;-82
2022/05/06 03:51:54;;;;;;;10.23;8.90;;;9.70;99.90;;;;;;5062696;28;20218;-82
2022/05/06 03:54:23;;;;;;;12.23;8.27;;;9.60;99.90;;;;;;5070216;28;20201;-82
2022/05/06 03:56:52;;;;;;;9.33;8.33;;;9.50;99.90;;;;;;5068056;28;20216;-82
2022/05/06 03:59:22;;;;;;;10.27;9.03;;;9.60;99.90;;;;;;5060403;28;20202;-82
2022/05/06 04:01:57;;;;;;;10.90;8.90;;;9.60;99.90;;;;;;5066867;28;20196;-82
2022/05/06 04:04:29;;;;;;;13.83;10.00;;;9.50;99.90;;;;;;5069505;28;20194;-82
2022/05/06 04:07:01;;;;;;;12.80;10.13;;;9.50;99.90;;;;;;5062220;28;20229;-82
2022/05/06 04:09:31;;;;;;;14.77;8.80;;;9.40;99.90;;;;;;5066588;28;20216;-82
2022/05/06 04:11:59;;;;;;;13.00;9.90;;;9.40;99.90;;;;;;5070982;28;20198;-82
2022/05/06 04:14:29;;;;;;;10.93;8.73;;;9.20;99.90;;;;;;5070765;28;20197;-82
2022/05/06 04:16:56;;;;;;;12.57;9.13;;;9.50;99.90;;;;;;5062966;28;20225;-82
2022/05/06 04:19:32;;;;;;;12.83;9.53;;;9.60;99.90;;;;;;5068580;28;20194;-82
2022/05/06 04:24:58;;;;;;;10.60;8.17;;;9.80;99.90;;;;;;5070644;28;20194;-82
2022/05/06 04:27:28;;;;;;;10.27;8.40;;;9.80;99.90;;;;;;5067787;28;20213;-82
2022/05/06 04:30:01;;;;;;;10.30;8.93;;;9.90;99.90;;;;;;5070595;28;20198;-82
2022/05/06 04:32:41;;;;;;;10.90;9.73;;;9.90;99.90;;;;;;5070446;28;20237;-80
2022/05/06 04:35:15;;;;;;;14.67;10.17;;;9.80;99.90;;;;;;5064021;28;20205;-80
2022/05/06 04:37:43;;;;;;;11.40;9.97;;;9.70;99.90;;;;;;5060826;28;20191;-80
2022/05/06 04:40:13;;;;;;;11.50;9.67;;;9.60;99.90;;;;;;5072402;28;20209;-80
2022/05/06 04:42:41;;;;;;;13.83;11.93;;;9.50;99.90;;;;;;5074249;28;20206;-80
2022/05/06 04:45:11;;;;;;;16.70;12.97;;;9.60;99.90;;;;;;5073408;28;20659;-80
2022/05/06 04:47:48;;;;;;;16.97;12.97;;;9.80;99.90;;;;;;5068034;28;20209;-80
2022/05/06 04:50:21;;;;;;;15.70;12.83;;;9.70;99.90;;;;;;5071597;28;20209;-80
2022/05/06 04:52:49;;;;;;;15.00;12.80;;;9.60;99.90;;;;;;5068803;28;20225;-80
2022/05/06 04:55:20;;;;;;;13.70;11.53;;;9.60;99.90;;;;;;5073639;28;20202;-79
2022/05/06 04:57:49;;;;;;;21.23;11.43;;;9.60;99.90;;;;;;5069788;28;20201;-80
2022/05/06 05:00:18;;;;;;;17.77;12.17;;;9.60;99.90;;;;;;5073480;28;20662;-80
2022/05/06 05:02:48;;;;;;;15.20;12.13;;;9.60;99.90;;;;;;5073559;28;20652;-80
2022/05/06 05:05:16;;;;;;;17.20;10.97;;;9.90;99.90;;;;;;5064291;28;20194;-80
2022/05/06 05:07:44;;;;;;;15.83;11.77;;;10.10;99.90;;;;;;5058896;28;20284;-80
2022/05/06 05:10:15;;;;;;;17.37;12.50;;;10.30;99.90;;;;;;5074323;28;20201;-80
2022/05/06 05:12:43;;;;;;;14.23;11.67;;;10.40;99.90;;;;;;5073250;28;20220;-80
2022/05/06 05:15:11;;;;;;;14.53;12.33;;;10.50;99.90;;;;;;5066085;28;20204;-80
2022/05/06 05:17:42;;;;;;;16.80;11.70;;;10.50;99.90;;;;;;5072948;28;20210;-80
2022/05/06 05:20:11;;;;;;;15.53;10.70;;;10.70;99.90;;;;;;5073705;28;20205;-80
2022/05/06 05:22:41;;;;;;;14.47;11.10;;;10.80;99.90;;;;;;5067558;28;20649;-80
2022/05/06 05:25:12;;;;;;;13.50;10.13;;;11.10;99.90;;;;;;5067666;28;20674;-79
2022/05/06 05:27:40;;;;;;;11.67;10.47;;;11.20;99.90;;;;;;5072794;28;20584;-80
2022/05/06 05:30:12;;;;;;;12.27;10.10;;;11.40;99.90;;;;;;5072458;28;20205;-80
2022/05/06 05:32:42;;;;;;;14.90;9.90;;;11.40;99.90;;;;;;5073007;28;20196;-80
2022/05/06 05:35:13;;;;;;;14.50;10.37;;;11.50;99.90;;;;;;5071827;28;20206;-80
2022/05/06 05:37:48;;;;;;;13.80;10.57;;;11.60;99.90;;;;;;5067088;28;20200;-80
2022/05/06 05:40:16;;;;;;;13.50;11.13;;;11.80;99.90;;;;;;5074895;28;20178;-80
2022/05/06 05:42:44;;;;;;;15.13;11.73;;;11.90;99.90;;;;;;5072583;28;20281;-80
2022/05/06 05:48:37;;;;;;;14.10;11.37;;;12.10;99.90;;;;;;5059666;28;20277;-80
2022/05/06 05:51:06;;;;;;;15.40;11.77;;;12.20;99.90;;;;;;5072377;28;20194;-80
2022/05/06 05:53:42;;;;;;;14.30;11.90;;;12.30;99.90;;;;;;5067875;28;20210;-80
2022/05/06 05:56:10;;;;;;;13.77;12.07;;;12.30;99.90;;;;;;5070101;28;20214;-80
2022/05/06 05:58:38;;;;;;;15.10;12.85;;;12.40;99.90;;;;;;5069376;28;20210;-79
2022/05/06 06:01:09;;;;;;;18.10;13.18;;;12.50;99.90;;;;;;5063649;28;20564;-80
2022/05/06 06:03:44;;;;;;;16.30;13.00;;;12.50;99.90;;;;;;5067028;28;20197;-80
2022/05/06 06:06:13;;;;;;;17.77;12.88;;;12.70;99.90;;;;;;5072934;28;20221;-79
2022/05/06 06:08:41;;;;;;;19.35;13.30;;;12.70;99.90;;;;;;5072455;28;20194;-80
2022/05/06 06:11:10;;;;;;;18.40;13.52;;;12.90;99.90;;;;;;5064791;28;20206;-80
2022/05/06 06:13:42;;;;;;;16.67;13.13;;;13.10;99.90;;;;;;5072701;28;20606;-80
2022/05/06 06:16:16;;;;;;;17.42;12.07;;;13.30;99.90;;;;;;5072757;28;20229;-80
2022/05/06 06:18:46;;;;;;;21.17;13.27;;;13.30;99.90;;;;;;5071769;28;20221;-80
2022/05/06 06:21:16;;;;;;;16.27;13.52;;;13.50;99.90;;;;;;5072134;28;20197;-80
2022/05/06 06:23:44;;;;;;;15.48;12.40;;;13.70;99.90;;;;;;5063209;28;20241;-80
2022/05/06 06:26:12;;;;;;;17.92;13.00;;;13.80;99.90;;;;;;5070797;28;20236;-80
2022/05/06 06:28:39;;;;;;;17.85;13.35;;;13.60;99.90;;;;;;5072456;28;20194;-80
2022/05/06 06:31:10;;;;;;;18.85;14.38;;;13.80;99.90;;;;;;5065226;28;20206;-80
2022/05/06 06:33:38;;;;;;;15.57;13.50;;;13.70;99.90;;;;;;5070526;28;20217;-80
2022/05/06 06:36:11;;;;;;;16.88;13.73;;;13.80;99.90;;;;;;5064963;28;20218;-80
2022/05/06 06:38:39;;;;;;;19.15;13.43;;;13.90;99.90;;;;;;5067634;28;20198;-80
2022/05/06 06:41:09;;;;;;;17.40;14.15;;;14.00;99.90;;;;;;5061538;28;20202;-80
2022/05/06 06:43:36;;;;;;;17.23;13.50;;;14.20;99.90;;;;;;5071986;28;20204;-80
2022/05/06 06:46:23;;;;;;;16.65;13.88;;;14.20;99.90;;;;;;5061299;28;20221;-80
2022/05/06 06:49:21;;;;;;;20.02;14.75;;;14.20;99.90;;;;;;5072657;28;20205;-80
2022/05/06 06:52:25;;;;;;;17.42;13.63;;;14.30;99.90;;;;;;5052172;28;20194;-80
2022/05/06 06:54:52;;;;;;;17.83;12.90;;;14.60;99.90;;;;;;5067829;28;20210;-80
2022/05/06 06:57:20;;;;;;;17.13;12.60;;;14.70;99.90;;;;;;5070066;28;20221;-80
2022/05/06 06:59:47;;;;;;;19.75;13.85;;;14.40;99.90;;;;;;5072543;28;20202;-80
2022/05/06 07:02:15;;;;;;;20.27;13.75;;;14.60;99.90;;;;;;5072669;28;20205;-80
2022/05/06 07:04:42;;;;;;;21.88;14.32;;;14.80;99.90;;;;;;5072926;28;20559;-80
2022/05/06 07:12:40;;;;;;;17.48;12.75;;;14.90;99.90;;;;;;5067435;28;20197;-80
2022/05/06 07:15:08;;;;;;;18.02;13.60;;;15.00;99.90;;;;;;5063635;28;20229;-80
2022/05/06 07:17:36;;;;;;;16.10;12.07;;;15.10;99.80;;;;;;5053412;28;20240;-80
2022/05/06 07:20:04;;;;;;;17.02;12.75;;;15.20;99.70;;;;;;5052453;28;20195;-80
2022/05/06 07:22:31;;;;;;;14.82;12.18;;;15.30;99.90;;;;;;5052536;28;20193;-80
2022/05/06 07:25:00;;;;;;;19.63;12.60;;;15.50;99.50;;;;;;5067554;28;20540;-80
2022/05/06 07:27:29;;;;;;;18.90;11.77;;;15.40;99.20;;;;;;5071647;28;20225;-80
2022/05/06 07:29:57;;;;;;;24.17;12.80;;;15.50;99.20;;;;;;5066624;28;20214;-80
2022/05/06 07:32:24;;;;;;;16.88;11.93;;;15.60;99.00;;;;;;5052371;28;20198;-80
2022/05/06 07:34:51;;;;;;;18.98;12.55;;;15.80;97.80;;;;;;5052429;28;20222;-80
2022/05/06 07:37:19;;;;;;;18.40;13.10;;;15.90;97.40;;;;;;5052726;28;20217;-80
2022/05/06 07:39:46;;;;;;;17.08;12.65;;;16.00;97.80;;;;;;5072664;28;20198;-80
2022/05/06 07:42:15;;;;;;;19.17;11.95;;;16.10;97.60;;;;;;5072523;28;20209;-80
2022/05/06 07:44:42;;;;;;;21.67;12.98;;;16.00;97.40;;;;;;5072459;28;20197;-80
2022/05/06 07:47:10;;;;;;;20.88;11.52;;;16.10;97.10;;;;;;5063576;28;20586;-80
2022/05/06 07:49:37;;;;;;;19.00;12.02;;;16.20;96.40;;;;;;5068869;28;20191;-80
2022/05/06 07:52:12;;;;;;;17.40;11.65;;;16.30;95.90;;;;;;5069786;28;20197;-80
2022/05/06 07:54:40;;;;;;;18.05;11.80;;;16.30;96.00;;;;;;5072376;28;20213;-80
2022/05/06 07:57:07;;;;;;;15.57;11.35;;;16.40;96.20;;;;;;5072036;28;20218;-80
2022/05/06 07:59:36;;;;;;;14.52;11.00;;;16.50;96.00;;;;;;5073482;28;20182;-80
2022/05/06 08:04:49;;;;;;;14.50;11.13;;;16.60;94.60;;;;;;5072227;28;20185;-81
2022/05/06 08:07:17;;;;;;;15.68;10.77;;;16.70;94.40;;;;;;5070980;28;20575;-80
2022/05/06 08:09:44;;;;;;;11.45;9.63;;;16.80;94.10;;;;;;5068777;28;20197;-80
2022/05/06 08:12:13;;;;;;;14.70;10.95;;;16.90;93.80;;;;;;5075235;28;20216;-80
2022/05/06 08:14:42;;;;;;;13.32;9.52;;;17.00;94.00;;;;;;5071802;28;20599;-80
2022/05/06 08:17:20;;;;;;;14.90;10.80;;;16.90;93.90;;;;;;5060319;28;20586;-80
2022/05/06 08:19:48;;;;;;;13.00;10.20;;;16.90;95.30;;;;;;5065157;28;20563;-80
2022/05/06 08:22:15;;;;;;;14.25;10.45;;;16.90;94.40;;;;;;5075355;28;20206;-81
2022/05/06 08:24:43;;;;;;;12.63;10.32;;;17.00;93.80;;;;;;5076595;28;20205;-80
2022/05/06 08:27:11;;;;;;;13.38;10.80;;;17.00;93.20;;;;;;5076216;28;20209;-80
2022/05/06 08:29:39;;;;;;;11.48;10.13;;;17.00;93.10;;;;;;5064652;28;20194;-80
2022/05/06 08:32:08;;;;;;;12.20;10.05;;;17.10;93.70;;;;;;5072960;28;20550;-80
2022/05/06 08:34:37;;;;;;;13.27;9.10;;;17.30;94.90;;;;;;5075670;28;20214;-80
2022/05/06 08:37:05;;;;;;;11.35;9.35;;;17.40;93.50;;;;;;5075222;28;20233;-80
2022/05/06 08:39:33;;;;;;;12.10;10.10;;;17.30;92.50;;;;;;5073858;28;20186;-81
2022/05/06 08:42:02;;;;;;;13.85;10.38;;;17.40;92.40;;;;;;5073354;28;20201;-80
2022/05/06 08:53:05;;;;;;;13.57;9.88;;;17.40;91.40;;;;;;5008017;28;20194;-80
2022/05/06 08:55:32;;;;;;;12.52;9.75;;;17.50;91.80;;;;;;4979113;28;20217;-80
2022/05/06 08:58:00;;;;;;;15.05;10.85;;;17.50;90.70;;;;;;5018053;28;20206;-80
2022/05/06 09:00:28;;;;;;;13.57;11.10;;;17.60;90.70;;;;;;5072630;28;20194;-80
2022/05/06 09:03:00;;;;;;;14.93;11.02;;;17.60;91.40;;;;;;5072441;28;20202;-80
2022/05/06 09:05:27;;;;;;;15.32;10.77;;;17.70;90.90;;;;;;5076151;28;20201;-80
2022/05/06 09:07:56;;;;;;;14.43;11.18;;;17.80;91.50;;;;;;5068586;28;20201;-80
2022/05/06 09:10:26;;;;;;;14.90;10.77;;;17.80;92.00;;;;;;5072464;28;20205;-80
2022/05/06 09:12:56;;;;;;;17.35;11.55;;;17.90;91.30;;;;;;5064630;28;20205;-80
2022/05/06 09:18:11;;;;;;;16.38;13.68;;;18.00;92.00;;;;;;5066325;28;20193;-81
2022/05/06 09:20:41;;;;;;;17.15;13.75;;;18.00;91.40;;;;;;5074274;28;20200;-80
2022/05/06 09:23:24;;;;;;;20.52;15.30;;;17.90;90.30;;;;;;5074454;28;20208;-80
2022/05/06 09:25:52;;;;;;;21.63;16.80;;;17.80;91.10;;;;;;5075596;28;20213;-80
2022/05/06 09:28:25;;;;;;;20.27;16.08;;;17.80;91.00;;;;;;5065044;28;20193;-80
2022/05/06 09:31:04;;;;;;;19.30;15.73;;;17.80;90.70;;;;;;5063673;28;20197;-80
2022/05/06 09:33:35;;;;;;;20.50;17.10;;;17.90;90.90;;;;;;5061212;28;20205;-80
2022/05/06 09:36:24;;;;;;;23.65;16.02;;;18.10;90.90;;;;;;5073926;28;20695;-80
2022/05/06 09:39:03;;;;;;;18.90;16.90;;;18.20;91.30;;;;;;5058638;28;20209;-80
2022/05/06 09:41:31;;;;;;;21.55;18.15;;;18.20;90.30;;;;;;5059046;28;20204;-80
2022/05/06 09:44:00;;;;;;;22.55;17.63;;;18.10;90.30;;;;;;5064473;28;20209;-80
2022/05/06 09:46:27;;;;;;;20.25;17.85;;;18.20;90.60;;;;;;5088517;28;20221;-80
2022/05/06 09:48:56;;;;;;;22.92;18.10;;;18.30;91.00;;;;;;5074111;28;20651;-80
2022/05/06 09:51:28;;;;;;;22.17;18.60;;;18.50;92.70;;;;;;5073635;28;20584;-80
2022/05/06 09:53:56;;;;;;;23.02;17.50;;;18.50;91.10;;;;;;5067419;28;20198;-80
2022/05/06 09:56:28;;;;;;;22.48;17.23;;;18.60;91.30;;;;;;5073799;28;20230;-80
2022/05/06 09:58:57;;;;;;;19.45;17.33;;;18.70;89.00;;;;;;5086225;28;20204;-80
2022/05/06 10:01:25;;;;;;;19.38;16.00;;;18.50;88.20;;;;;;5074291;28;20208;-80
2022/05/06 10:03:53;;;;;;;21.83;17.00;;;18.50;87.50;;;;;;5078350;28;20209;-80
2022/05/06 10:06:26;;;;;;;19.05;16.35;;;18.40;87.10;;;;;;5071152;28;20217;-80
2022/05/06 10:08:58;;;;;;;16.40;12.70;;;18.40;88.00;;;;;;5066583;28;20201;-80
2022/05/06 10:11:28;;;;;;;15.35;12.73;;;18.40;85.00;;;;;;5073405;28;20212;-80
2022/05/06 10:13:58;;;;;;;13.88;10.02;;;18.60;83.00;;;;;;5071650;28;20201;-80
2022/05/06 10:16:34;;;;;;;14.57;12.85;;;18.70;78.40;;;;;;5065813;28;20237;-81
2022/05/06 10:19:02;;;;;;;13.90;12.32;;;18.60;81.80;;;;;;5072222;28;20205;-80
2022/05/06 10:21:49;;;;;;;13.27;11.68;;;18.90;83.70;;;;;;5060560;28;20202;-80
2022/05/06 10:24:18;;;;;;;21.02;17.80;;;19.30;88.10;;;;;;5070787;28;20553;-80
2022/05/06 10:26:47;;;;;;;21.25;18.63;;;19.40;86.30;;;;;;5052813;28;20218;-80
2022/05/06 10:32:53;;;;;;;25.67;22.90;;;18.80;90.60;;;;;;5047866;28;20559;-80
2022/05/06 10:35:36;;;;;;;29.33;22.55;;;18.50;91.60;;;;;;5053541;28;20210;-80
2022/05/06 10:38:18;;;;;;;27.75;24.02;;;18.40;92.30;;;;;;5070957;28;20201;-80
2022/05/06 10:40:56;;;;;;;27.30;24.02;;;18.40;92.50;;;;;;5078384;28;20197;-80
2022/05/06 10:43:52;;;;;;;24.92;22.25;;;18.40;92.00;;;;;;5076797;28;20197;-80
2022/05/06 10:46:33;;;;;;;23.42;20.92;;;18.30;92.20;;;;;;5074809;28;20217;-80
2022/05/06 10:49:52;;;;;;;23.40;20.45;;;18.20;91.80;;;;;;5072208;28;20201;-80
2022/05/06 10:52:42;;;;;;;24.20;21.60;;;18.20;91.80;;;;;;5072265;28;20202;-80
2022/05/06 10:55:13;;;;;;;21.65;18.90;;;18.40;91.30;;;;;;5071646;28;20209;-80
2022/05/06 10:58:01;;;;;;;21.77;18.40;;;18.40;91.20;;;;;;5058075;28;20218;-80
2022/05/06 11:00:30;;;;;;;20.83;18.50;;;18.70;91.10;;;;;;5052143;28;20206;-80
2022/05/06 11:03:01;;;;;;;18.52;16.05;;;18.70;90.30;;;;;;5056631;28;20205;-80
2022/05/06 11:05:30;;;;;;;20.58;17.60;;;18.90;89.50;;;;;;5071751;28;20186;-81
2022/05/06 11:08:00;;;;;;;18.30;15.55;;;19.10;89.00;;;;;;5072564;28;20204;-80
2022/05/06 11:10:33;;;;;;;19.23;15.57;;;19.40;88.50;;;;;;5072125;28;20198;-80
2022/05/06 11:13:01;;;;;;;17.33;15.15;;;19.60;87.00;;;;;;5071941;28;20204;-80
2022/05/06 11:15:33;;;;;;;19.02;14.70;;;20.00;86.70;;;;;;5072084;28;20241;-80
2022/05/06 11:18:02;;;;;;;17.38;14.52;;;20.20;84.30;;;;;;5070962;28;20204;-80
2022/05/06 11:20:31;;;;;;;13.73;12.40;;;20.20;87.90;;;;;;5071616;28;20208;-80
2022/05/06 11:23:01;;;;;;;15.65;13.95;;;20.10;86.70;;;;;;5072006;28;20201;-80
2022/05/06 11:25:33;;;;;;;15.00;13.40;;;20.20;83.00;;;;;;5071684;28;20204;-80
2022/05/06 11:28:02;;;;;;;17.15;13.73;;;19.80;83.30;;;;;;5065284;28;20206;-80
2022/05/06 11:30:30;;;;;;;16.75;12.77;;;19.70;85.10;;;;;;5069264;28;20206;-80
2022/05/06 11:33:01;;;;;;;14.20;12.30;;;19.90;84.70;;;;;;5072477;28;20197;-80
2022/05/06 11:36:05;;;;;;;14.73;12.93;;;19.60;83.00;;;;;;5070448;28;20194;-80
2022/05/06 11:38:34;;;;;;;19.95;14.20;;;19.50;83.80;;;;;;5067525;28;20185;-80
2022/05/06 11:41:10;;;;;;;17.88;13.52;;;19.70;81.00;;;;;;5069594;28;20198;-80
2022/05/06 11:43:38;;;;;;;14.45;12.90;;;20.00;81.20;;;;;;5071617;28;20204;-80
2022/05/06 11:48:52;;;;;;;15.77;13.73;;;20.50;80.70;;;;;;5067091;28;20181;-80
2022/05/06 11:51:24;;;;;;;13.52;12.13;;;20.70;75.70;;;;;;5075584;28;20711;-80
2022/05/06 11:53:52;;;;;;;15.30;11.88;;;20.90;78.50;;;;;;5074990;28;20224;-80
2022/05/06 11:56:25;;;;;;;11.80;10.60;;;20.70;72.60;;;;;;5073572;28;20218;-80
2022/05/06 11:58:53;;;;;;;11.52;10.07;;;20.90;71.70;;;;;;5056768;28;20202;-80
2022/05/06 12:01:28;;;;;;;11.15;10.05;;;20.90;70.50;;;;;;5073646;28;20201;-80
2022/05/06 12:04:00;;;;;;;14.68;12.32;;;20.90;71.20;;;;;;5074543;28;20212;-80
2022/05/06 12:06:32;;;;;;;14.75;12.38;;;21.30;73.60;;;;;;5074554;28;20213;-80
2022/05/06 12:09:10;;;;;;;13.65;12.25;;;21.40;74.00;;;;;;5066217;28;20208;-81
2022/05/06 12:11:39;;;;;;;20.15;12.57;;;21.30;72.50;;;;;;5074622;28;20673;-80
2022/05/06 12:14:07;;;;;;;14.60;13.13;;;21.00;73.80;;;;;;5067471;28;20198;-80
2022/05/06 12:16:35;;;;;;;17.30;14.52;;;20.40;74.50;;;;;;5076122;28;20229;-83
2022/05/06 12:19:05;;;;;;;17.75;14.23;;;20.50;76.30;;;;;;5069798;28;20193;-80
2022/05/06 12:21:35;;;;;;;16.42;14.55;;;20.30;78.40;;;;;;5069799;28;20193;-80
2022/05/06 12:24:03;;;;;;;15.82;13.95;;;20.30;77.70;;;;;;5077943;28;20202;-80
2022/05/06 12:26:35;;;;;;;18.35;16.30;;;20.20;79.50;;;;;;5072043;28;20226;-80
2022/05/06 12:29:21;;;;;;;18.00;15.48;;;20.00;78.50;;;;;;5077860;28;20211;-80
2022/05/06 12:31:48;;;;;;;19.23;15.85;;;20.00;79.20;;;;;;5077683;28;20200;-80
2022/05/06 12:34:16;;;;;;;16.90;14.80;;;20.00;79.10;;;;;;5070132;28;20228;-80
2022/05/06 12:36:43;;;;;;;16.95;14.77;;;20.30;77.80;;;;;;5069709;28;20225;-80
2022/05/06 12:39:19;;;;;;;16.33;13.32;;;20.50;75.30;;;;;;5076076;28;20201;-80
2022/05/06 12:41:47;;;;;;;16.10;13.13;;;21.00;72.40;;;;;;5070573;28;20197;-80
2022/05/06 12:44:30;;;;;;;15.98;12.52;;;21.10;69.80;;;;;;5072416;28;20210;-80
2022/05/06 12:47:12;;;;;;;15.13;12.73;;;21.50;68.30;;;;;;5056410;28;20222;-80
2022/05/06 12:49:42;;;;;;;16.30;14.18;;;22.20;67.70;;;;;;5072103;28;20197;-80
2022/05/06 12:52:10;;;;;;;13.95;12.50;;;22.20;66.90;;;;;;5073272;28;20675;-80
2022/05/06 12:54:39;;;;;;;16.92;13.15;;;22.10;65.80;;;;;;5075535;28;20205;-80
2022/05/06 12:57:08;;;;;;;15.90;12.00;;;21.80;65.80;;;;;;5075029;28;20209;-81
2022/05/06 12:59:37;;;;;;;14.80;12.25;;;21.60;66.10;;;;;;5069687;28;20199;-81
2022/05/06 13:02:06;;;;;;;14.50;12.18;;;21.00;67.60;;;;;;5067541;28;20190;-80
2022/05/06 13:04:34;;;;;;;15.60;11.98;;;21.30;67.90;;;;;;5066351;28;20205;-80
2022/05/06 13:07:01;;;;;;;15.18;13.20;;;21.30;68.10;;;;;;5070127;28;20210;-80
2022/05/06 13:09:29;;;;;;;15.60;13.85;;;20.90;66.30;;;;;;5071779;28;20209;-80
2022/05/06 13:12:00;;;;;;;15.18;13.57;;;20.90;67.20;;;;;;5075093;28;20206;-80
2022/05/06 13:14:27;;;;;;;18.13;15.38;;;21.00;66.60;;;;;;5055291;28;20198;-81
2022/05/06 13:16:56;;;;;;;17.77;15.00;;;20.80;68.30;;;;;;5058270;28;20221;-81
2022/05/06 13:19:24;;;;;;;16.38;13.80;;;20.90;67.90;;;;;;5074332;28;20327;-81
2022/05/06 13:21:52;;;;;;;16.63;13.75;;;20.80;67.70;;;;;;5075696;28;20190;-81
2022/05/06 13:24:23;;;;;;;15.50;13.90;;;20.80;70.10;;;;;;5074909;28;20216;-80
2022/05/06 13:26:50;;;;;;;14.93;13.43;;;21.20;69.40;;;;;;5072305;28;20225;-80
2022/05/06 13:29:18;;;;;;;15.02;13.07;;;21.20;67.60;;;;;;5059747;28;20205;-80
2022/05/06 13:31:45;;;;;;;16.20;12.57;;;21.40;69.10;;;;;;5068335;28;20207;-80